createdAt,value
2018-11-05T00:00:06.029Z,6.70
2018-11-05T00:02:34.024Z,6.74
2018-11-05T00:05:02.009Z,6.73
2018-11-05T00:07:30.044Z,6.65
2018-11-05T00:09:58.092Z,6.73
2018-11-05T00:12:26.016Z,6.65
2018-11-05T00:14:53.953Z,6.57
2018-11-05T00:17:21.904Z,6.60
2018-11-05T00:19:49.837Z,6.70
2018-11-05T00:22:17.796Z,6.58
2018-11-05T00:24:45.724Z,6.48
2018-11-05T00:27:13.699Z,6.57
2018-11-05T00:29:41.637Z,6.63
2018-11-05T00:32:09.589Z,6.70
2018-11-05T00:34:37.546Z,6.72
2018-11-05T00:37:06.030Z,6.86
2018-11-05T00:39:33.998Z,6.80
2018-11-05T00:42:02.052Z,6.82
2018-11-05T00:44:30.003Z,6.91
2018-11-05T00:46:58.407Z,6.86
2018-11-05T00:49:26.425Z,7.05
2018-11-05T00:51:54.402Z,6.98
2018-11-05T00:54:22.324Z,6.87
2018-11-05T00:56:50.326Z,6.93
2018-11-05T00:59:18.266Z,7.09
2018-11-05T01:01:46.877Z,7.12
2018-11-05T01:04:14.846Z,7.26
2018-11-05T01:06:42.808Z,7.09
2018-11-05T01:09:10.758Z,7.17
2018-11-05T01:11:38.930Z,7.22
2018-11-05T01:14:07.675Z,7.15
2018-11-05T01:16:35.787Z,7.12
2018-11-05T01:19:03.902Z,7.14
2018-11-05T01:21:31.841Z,7.12
2018-11-05T01:23:59.829Z,7.21
2018-11-05T01:26:27.788Z,7.20
2018-11-05T01:28:55.883Z,7.26
2018-11-05T01:31:23.820Z,7.29
2018-11-05T01:33:51.825Z,7.37
2018-11-05T01:36:19.892Z,7.28
2018-11-05T01:38:47.886Z,7.34
2018-11-05T01:41:15.868Z,7.53
2018-11-05T01:43:43.844Z,7.55
2018-11-05T01:46:11.914Z,7.48
2018-11-05T01:48:39.937Z,7.37
2018-11-05T01:51:07.942Z,7.43
2018-11-05T01:53:35.960Z,7.55
2018-11-05T01:56:04.092Z,7.33
2018-11-05T01:58:32.056Z,7.41
2018-11-05T02:01:00.027Z,7.26
2018-11-05T02:03:27.945Z,7.34
2018-11-05T02:05:56.016Z,7.37
2018-11-05T02:08:23.976Z,7.44
2018-11-05T02:34:49.032Z,7.66
2018-11-05T02:37:16.989Z,7.77
2018-11-05T02:39:44.923Z,7.68
2018-11-05T02:42:12.906Z,7.74
2018-11-05T02:44:40.898Z,7.56
2018-11-05T02:47:08.862Z,7.63
2018-11-05T02:49:36.821Z,7.72
2018-11-05T02:52:05.078Z,7.72
2018-11-05T02:54:33.062Z,7.84
2018-11-05T02:57:00.960Z,7.86
2018-11-05T02:59:28.856Z,7.73
2018-11-05T03:01:56.798Z,7.96
2018-11-05T03:04:24.912Z,8.01
2018-11-05T03:06:52.991Z,7.97
2018-11-05T03:09:20.974Z,8.08
2018-11-05T03:11:49.012Z,8.03
2018-11-05T03:14:16.983Z,8.06
2018-11-05T03:16:44.982Z,8.02
2018-11-05T03:19:13.946Z,8.14
2018-11-05T03:21:41.925Z,8.10
2018-11-05T03:24:09.961Z,8.12
2018-11-05T03:26:37.927Z,8.13
2018-11-05T03:29:05.962Z,8.10
2018-11-05T03:31:33.889Z,8.09
2018-11-05T03:34:01.983Z,8.21
2018-11-05T03:36:29.978Z,8.14
2018-11-05T03:38:57.925Z,8.37
2018-11-05T03:41:25.929Z,8.23
2018-11-05T03:43:53.915Z,8.23
2018-11-05T03:46:21.852Z,8.22
2018-11-05T03:48:49.783Z,8.29
2018-11-05T03:51:17.783Z,8.45
2018-11-05T03:53:45.722Z,8.36
2018-11-05T03:56:13.791Z,8.29
2018-11-05T03:58:41.608Z,8.30
2018-11-05T04:01:09.545Z,8.33
2018-11-05T04:03:37.465Z,8.37
2018-11-05T04:06:05.522Z,8.37
2018-11-05T04:08:33.518Z,8.35
2018-11-05T04:11:01.456Z,8.55
2018-11-05T04:13:29.420Z,8.51
2018-11-05T04:15:57.464Z,8.47
2018-11-05T04:18:25.427Z,8.49
2018-11-05T04:20:53.416Z,8.50
2018-11-05T04:23:21.399Z,8.48
2018-11-05T04:25:49.378Z,8.40
2018-11-05T04:28:17.353Z,8.36
2018-11-05T04:30:45.317Z,8.24
2018-11-05T04:33:13.300Z,8.38
2018-11-05T04:35:41.309Z,8.52
2018-11-05T04:38:09.261Z,8.55
2018-11-05T04:40:37.232Z,8.43
2018-11-05T04:43:05.280Z,8.55
2018-11-05T04:45:33.299Z,8.60
2018-11-05T04:48:01.334Z,8.45
2018-11-05T04:50:29.268Z,8.61
2018-11-05T04:52:57.223Z,8.58
2018-11-05T04:55:25.176Z,8.62
2018-11-05T04:57:53.198Z,8.53
2018-11-05T05:00:21.174Z,8.57
2018-11-05T05:02:49.114Z,8.50
2018-11-05T05:05:17.164Z,8.52
2018-11-05T05:07:45.209Z,8.65
2018-11-05T05:10:13.289Z,8.81
2018-11-05T05:12:42.058Z,8.71
2018-11-05T05:15:10.545Z,8.55
2018-11-05T05:17:38.919Z,8.58
2018-11-05T05:20:09.160Z,8.63
2018-11-05T05:22:37.300Z,8.72
2018-11-05T05:25:05.568Z,8.80
2018-11-05T05:27:33.543Z,8.79
2018-11-05T05:30:01.530Z,8.68
2018-11-05T05:32:29.486Z,8.68
2018-11-05T05:34:57.470Z,8.76
2018-11-05T05:37:25.424Z,8.66
2018-11-05T05:39:53.408Z,8.84
2018-11-05T05:42:21.502Z,8.72
2018-11-05T05:44:49.464Z,8.70
2018-11-05T05:47:17.433Z,8.62
2018-11-05T05:49:45.527Z,8.64
2018-11-05T05:52:13.550Z,8.60
2018-11-05T05:54:41.552Z,8.71
2018-11-05T05:57:09.644Z,8.73
2018-11-05T05:59:37.627Z,8.77
2018-11-05T06:02:06.212Z,8.73
2018-11-05T06:04:34.233Z,8.71
2018-11-05T06:07:02.181Z,8.83
2018-11-05T06:09:30.161Z,8.79
2018-11-05T06:11:58.132Z,8.84
2018-11-05T06:14:26.140Z,8.88
2018-11-05T06:16:54.194Z,8.84
2018-11-05T06:19:22.195Z,8.81
2018-11-05T06:21:50.253Z,8.83
2018-11-05T06:24:18.176Z,8.78
2018-11-05T06:26:46.205Z,8.79
2018-11-05T06:29:14.181Z,8.73
2018-11-05T06:31:42.377Z,8.84
2018-11-05T06:34:10.426Z,8.84
2018-11-05T06:36:38.424Z,8.85
2018-11-05T06:39:09.114Z,8.70
2018-11-05T06:41:38.028Z,8.74
2018-11-05T06:44:06.374Z,8.64
2018-11-05T06:46:35.197Z,8.70
2018-11-05T06:49:03.231Z,8.69
2018-11-05T06:51:31.669Z,8.64
2018-11-05T06:53:59.693Z,8.70
2018-11-05T06:56:28.797Z,8.71
2018-11-05T06:58:56.816Z,8.74
2018-11-05T07:01:24.804Z,8.74
2018-11-05T07:03:52.719Z,8.72
2018-11-05T07:06:21.425Z,8.81
2018-11-05T07:08:49.454Z,8.86
2018-11-05T07:11:17.513Z,8.78
2018-11-05T07:13:45.490Z,8.85
2018-11-05T07:16:13.483Z,8.74
2018-11-05T07:18:41.795Z,8.79
2018-11-05T07:21:09.632Z,8.78
2018-11-05T07:23:37.644Z,8.84
2018-11-05T07:26:06.485Z,8.81
2018-11-05T07:28:34.448Z,8.84
2018-11-05T07:31:02.486Z,8.94
2018-11-05T07:33:30.772Z,8.92
2018-11-05T07:35:58.813Z,8.88
2018-11-05T07:38:26.820Z,8.88
2018-11-05T07:40:54.943Z,9.02
2018-11-05T07:43:22.925Z,8.98
2018-11-05T07:45:50.903Z,9.08
2018-11-05T07:48:18.996Z,9.10
2018-11-05T07:50:47.019Z,9.12
2018-11-05T07:53:15.158Z,9.16
2018-11-05T07:55:43.224Z,9.09
2018-11-05T07:58:11.189Z,9.15
2018-11-05T08:00:44.801Z,9.23
2018-11-05T08:03:12.869Z,9.15
2018-11-05T08:05:40.837Z,9.25
2018-11-05T08:08:08.820Z,9.20
2018-11-05T08:10:36.949Z,9.21
2018-11-05T08:13:07.998Z,9.21
2018-11-05T08:15:36.060Z,9.23
2018-11-05T08:18:04.168Z,9.30
2018-11-05T08:20:32.249Z,9.41
2018-11-05T08:23:00.772Z,9.41
2018-11-05T08:25:28.897Z,9.51
2018-11-05T08:27:56.913Z,9.62
2018-11-05T08:30:25.685Z,9.63
2018-11-05T08:32:54.052Z,9.30
2018-11-05T08:35:22.193Z,9.36
2018-11-05T08:37:50.884Z,9.48
2018-11-05T08:40:20.961Z,9.53
2018-11-05T08:42:49.697Z,9.45
2018-11-05T08:45:19.093Z,9.45
2018-11-05T08:47:47.088Z,9.50
2018-11-05T08:50:16.361Z,9.59
2018-11-05T08:52:44.339Z,9.69
2018-11-05T08:55:16.354Z,9.64
2018-11-05T08:57:44.560Z,9.59
2018-11-05T09:00:47.227Z,9.61
2018-11-05T09:03:15.268Z,9.66
2018-11-05T09:05:43.368Z,9.63
2018-11-05T09:08:11.345Z,9.70
2018-11-05T09:10:39.606Z,9.87
2018-11-05T09:13:07.434Z,9.85
2018-11-05T09:15:35.385Z,9.61
2018-11-05T09:18:04.493Z,9.67
2018-11-05T09:20:32.591Z,9.51
2018-11-05T09:23:00.573Z,9.43
2018-11-05T09:25:28.531Z,9.42
2018-11-05T09:27:56.587Z,9.36
2018-11-05T09:30:25.128Z,9.48
2018-11-05T09:32:55.403Z,9.36
2018-11-05T09:35:23.432Z,9.36
2018-11-05T09:37:51.455Z,9.33
2018-11-05T09:40:21.483Z,9.25
2018-11-05T09:42:50.486Z,9.27
2018-11-05T09:45:21.906Z,9.38
2018-11-05T09:47:50.034Z,9.31
2018-11-05T09:50:18.727Z,9.31
2018-11-05T09:52:46.721Z,9.34
2018-11-05T09:55:15.338Z,9.43
2018-11-05T09:57:43.304Z,9.59
2018-11-05T10:00:14.199Z,9.58
2018-11-05T10:02:47.917Z,9.61
2018-11-05T10:05:16.365Z,9.54
2018-11-05T10:07:44.782Z,9.52
2018-11-05T10:10:13.680Z,9.57
2018-11-05T10:12:41.840Z,9.54
2018-11-05T10:15:11.028Z,9.66
2018-11-05T10:17:39.282Z,9.52
2018-11-05T10:20:12.289Z,9.53
2018-11-05T10:22:40.286Z,9.61
2018-11-05T10:25:09.548Z,9.69
2018-11-05T10:27:37.284Z,9.77
2018-11-05T10:30:07.323Z,9.91
2018-11-05T10:32:35.369Z,9.72
2018-11-05T10:35:03.417Z,9.72
2018-11-05T10:37:31.484Z,9.72
2018-11-05T10:39:59.476Z,9.73
2018-11-05T10:42:27.689Z,9.77
2018-11-05T10:44:55.696Z,9.72
2018-11-05T10:47:23.636Z,9.64
2018-11-05T10:49:51.658Z,9.62
2018-11-05T10:52:20.146Z,9.71
2018-11-05T10:54:48.143Z,9.82
2018-11-05T10:57:16.114Z,9.82
2018-11-05T10:59:44.386Z,9.68
2018-11-05T11:02:18.048Z,9.83
2018-11-05T11:04:46.020Z,9.73
2018-11-05T11:07:14.022Z,9.74
2018-11-05T11:09:48.759Z,9.87
2018-11-05T11:12:16.725Z,9.76
2018-11-05T11:14:44.604Z,9.88
2018-11-05T11:17:13.992Z,9.88
2018-11-05T11:19:42.336Z,9.93
2018-11-05T11:22:11.749Z,10.09
2018-11-05T11:24:39.697Z,10.00
2018-11-05T11:27:07.668Z,10.02
2018-11-05T11:29:35.669Z,9.99
2018-11-05T11:32:05.061Z,10.10
2018-11-05T11:34:32.959Z,10.19
2018-11-05T11:37:00.962Z,10.16
2018-11-05T11:39:28.909Z,10.33
2018-11-05T11:41:56.940Z,10.42
2018-11-05T11:44:24.917Z,10.51
2018-11-05T11:46:52.841Z,10.42
2018-11-05T11:49:20.831Z,10.29
2018-11-05T11:51:48.785Z,10.12
2018-11-05T11:54:16.744Z,10.18
2018-11-05T11:56:44.766Z,10.11
2018-11-05T11:59:12.869Z,9.98
2018-11-05T12:01:46.494Z,10.21
2018-11-05T12:04:14.669Z,10.33
2018-11-05T12:06:42.855Z,10.30
2018-11-05T12:09:10.860Z,10.38
2018-11-05T12:11:38.941Z,10.51
2018-11-05T12:14:07.164Z,10.60
2018-11-05T12:16:35.660Z,10.47
2018-11-05T12:19:04.156Z,10.58
2018-11-05T12:21:32.199Z,10.53
2018-11-05T12:24:00.150Z,10.56
2018-11-05T12:26:28.193Z,10.53
2018-11-05T12:28:56.205Z,10.61
2018-11-05T12:31:24.181Z,10.59
2018-11-05T12:33:52.248Z,10.70
2018-11-05T12:36:20.245Z,10.70
2018-11-05T12:38:48.175Z,10.69
2018-11-05T12:41:16.108Z,10.75
2018-11-05T12:43:44.054Z,10.68
2018-11-05T12:46:11.998Z,10.68
2018-11-05T12:48:40.040Z,10.56
2018-11-05T12:51:08.032Z,10.49
2018-11-05T12:53:36.044Z,10.53
2018-11-05T12:56:04.036Z,10.60
2018-11-05T12:58:31.980Z,10.60
2018-11-05T13:01:00.057Z,10.61
2018-11-05T13:03:27.971Z,10.65
2018-11-05T13:05:55.945Z,10.73
2018-11-05T13:08:23.900Z,10.58
2018-11-05T13:10:51.820Z,10.72
2018-11-05T13:13:19.806Z,10.73
2018-11-05T13:15:47.773Z,10.75
2018-11-05T13:18:15.691Z,10.76
2018-11-05T13:20:43.673Z,10.86
2018-11-05T13:23:11.609Z,10.81
2018-11-05T13:25:39.542Z,11.00
2018-11-05T13:28:07.576Z,11.01
2018-11-05T13:30:35.570Z,10.94
2018-11-05T13:33:03.596Z,11.21
2018-11-05T13:35:31.585Z,11.05
2018-11-05T13:38:00.043Z,10.90
2018-11-05T13:40:27.560Z,10.74
2018-11-05T13:42:55.590Z,10.74
2018-11-05T13:45:23.616Z,10.75
2018-11-05T13:47:52.566Z,10.75
2018-11-05T13:50:19.975Z,10.78
2018-11-05T13:52:47.599Z,10.90
2018-11-05T13:55:16.431Z,10.87
2018-11-05T13:57:45.466Z,10.92
2018-11-05T14:00:14.842Z,10.99
2018-11-05T14:02:42.874Z,11.00
2018-11-05T14:05:11.447Z,11.02
2018-11-05T14:07:39.728Z,10.98
2018-11-05T14:10:10.518Z,10.90
2018-11-05T14:12:38.587Z,10.87
2018-11-05T14:15:06.697Z,10.91
2018-11-05T14:17:34.681Z,10.85
2018-11-05T14:20:02.752Z,10.87
2018-11-05T14:22:30.702Z,10.90
2018-11-05T14:24:58.733Z,10.87
2018-11-05T14:27:26.872Z,10.82
2018-11-05T14:29:55.023Z,10.85
2018-11-05T14:32:22.711Z,10.94
2018-11-05T14:34:50.638Z,10.77
2018-11-05T14:37:18.956Z,10.86
2018-11-05T14:39:46.887Z,10.96
2018-11-05T14:42:14.833Z,10.95
2018-11-05T14:44:42.781Z,11.00
2018-11-05T14:47:10.725Z,11.05
2018-11-05T14:49:38.732Z,10.93
2018-11-05T14:52:06.766Z,10.95
2018-11-05T14:54:34.880Z,10.87
2018-11-05T14:57:02.857Z,10.79
2018-11-05T14:59:30.776Z,10.83
2018-11-05T15:02:04.324Z,10.83
2018-11-05T15:04:32.274Z,10.69
2018-11-05T15:07:00.298Z,10.87
2018-11-05T15:09:28.191Z,10.87
2018-11-05T15:11:56.236Z,10.78
2018-11-05T15:14:24.128Z,10.66
2018-11-05T15:16:52.273Z,10.75
2018-11-05T15:19:20.582Z,10.77
2018-11-05T15:21:48.184Z,10.71
2018-11-05T15:24:16.505Z,10.80
2018-11-05T15:26:44.585Z,10.80
2018-11-05T15:29:12.590Z,10.94
2018-11-05T15:31:40.573Z,10.83
2018-11-05T15:34:09.231Z,10.91
2018-11-05T15:36:37.227Z,10.90
2018-11-05T15:39:07.447Z,10.84
2018-11-05T15:41:35.897Z,10.92
2018-11-05T15:44:03.912Z,10.99
2018-11-05T15:46:31.924Z,11.14
2018-11-05T15:48:59.936Z,11.04
2018-11-05T15:51:28.187Z,11.11
2018-11-05T15:53:56.364Z,11.00
2018-11-05T15:56:24.317Z,10.97
2018-11-05T15:58:52.301Z,10.91
2018-11-05T16:01:20.278Z,10.96
2018-11-05T16:03:48.668Z,10.99
2018-11-05T16:06:16.660Z,10.99
2018-11-05T16:08:45.402Z,10.81
2018-11-05T16:11:13.325Z,10.82
2018-11-05T16:13:41.271Z,10.85
2018-11-05T16:16:09.213Z,10.92
2018-11-05T16:18:37.290Z,11.00
2018-11-05T16:21:05.435Z,11.13
2018-11-05T16:23:33.404Z,11.17
2018-11-05T16:26:01.458Z,11.30
2018-11-05T16:28:29.452Z,11.24
2018-11-05T16:30:57.365Z,11.35
2018-11-05T16:33:25.327Z,11.32
2018-11-05T16:35:53.223Z,11.30
2018-11-05T16:38:21.248Z,11.12
2018-11-05T16:40:49.133Z,11.19
2018-11-05T16:43:17.056Z,11.15
2018-11-05T16:45:45.064Z,11.05
2018-11-05T16:48:13.151Z,10.98
2018-11-05T16:50:48.480Z,11.16
2018-11-05T16:53:23.565Z,11.19
2018-11-05T16:55:51.583Z,11.08
2018-11-05T16:58:19.563Z,11.25
2018-11-05T17:00:47.606Z,11.26
2018-11-05T17:03:15.460Z,11.19
2018-11-05T17:05:43.345Z,11.26
2018-11-05T17:08:11.728Z,11.19
2018-11-05T17:10:39.687Z,11.10
2018-11-05T17:13:07.681Z,11.14
2018-11-05T17:15:36.419Z,11.13
2018-11-05T17:18:04.387Z,11.30
2018-11-05T17:20:32.665Z,11.34
2018-11-05T17:23:00.599Z,11.29
2018-11-05T17:25:28.825Z,11.20
2018-11-05T17:27:56.954Z,11.10
2018-11-05T17:30:24.963Z,11.10
2018-11-05T17:32:52.972Z,11.14
2018-11-05T17:35:20.905Z,11.13
2018-11-05T17:37:49.121Z,11.06
2018-11-05T17:40:18.656Z,10.92
2018-11-05T17:42:46.517Z,11.15
2018-11-05T17:45:15.804Z,11.22
2018-11-05T17:47:47.175Z,11.21
2018-11-05T17:50:16.781Z,11.15
2018-11-05T17:52:45.048Z,11.29
2018-11-05T17:55:14.329Z,11.33
2018-11-05T17:57:43.253Z,11.41
2018-11-05T18:00:14.358Z,11.40
2018-11-05T18:02:42.423Z,11.45
2018-11-05T18:05:10.468Z,11.51
2018-11-05T18:07:38.383Z,11.47
2018-11-05T18:10:06.749Z,11.52
2018-11-05T18:12:34.905Z,11.48
2018-11-05T18:15:03.155Z,11.51
2018-11-05T18:20:34.265Z,11.60
2018-11-05T18:23:02.272Z,11.66
2018-11-05T18:25:30.204Z,11.74
2018-11-05T18:27:59.146Z,11.75
2018-11-05T18:30:27.126Z,11.77
2018-11-05T18:32:55.086Z,11.76
2018-11-05T18:35:22.980Z,11.59
2018-11-05T18:37:51.672Z,11.75
2018-11-05T18:40:19.579Z,11.73
2018-11-05T18:42:47.620Z,11.82
2018-11-05T18:45:15.935Z,11.79
2018-11-05T18:47:44.041Z,11.81
2018-11-05T18:50:13.527Z,11.82
2018-11-05T18:52:41.801Z,11.66
2018-11-05T18:55:11.241Z,11.73
2018-11-05T18:57:39.684Z,11.78
2018-11-05T19:00:15.363Z,11.82
2018-11-05T19:02:43.568Z,11.75
2018-11-05T19:05:11.465Z,11.81
2018-11-05T19:07:40.968Z,11.84
2018-11-05T19:10:08.916Z,11.77
2018-11-05T19:12:36.949Z,11.82
2018-11-05T19:15:08.431Z,11.84
2018-11-05T19:17:36.430Z,11.80
2018-11-05T19:20:06.307Z,11.78
2018-11-05T19:22:35.195Z,11.79
2018-11-05T19:25:03.315Z,11.82
2018-11-05T19:27:31.404Z,11.80
2018-11-05T19:30:00.477Z,11.84
2018-11-05T19:32:28.418Z,11.84
2018-11-05T19:34:56.430Z,11.83
2018-11-05T19:37:24.503Z,11.79
2018-11-05T19:39:54.674Z,11.77
2018-11-05T19:42:20.929Z,11.78
2018-11-05T19:44:48.869Z,11.83
2018-11-05T19:47:17.261Z,11.86
2018-11-05T19:49:45.333Z,11.85
2018-11-05T19:52:13.359Z,11.90
2018-11-05T19:54:41.310Z,11.87
2018-11-05T19:57:09.329Z,11.89
2018-11-05T19:59:37.313Z,11.82
2018-11-05T20:02:06.356Z,11.85
2018-11-05T20:04:34.351Z,11.88
2018-11-05T20:07:02.347Z,11.80
2018-11-05T20:09:30.352Z,11.75
2018-11-05T20:11:58.276Z,11.73
2018-11-05T20:14:26.235Z,11.63
2018-11-05T20:16:54.243Z,11.61
2018-11-05T20:19:22.358Z,11.68
2018-11-05T20:21:50.270Z,11.64
2018-11-05T20:24:18.237Z,11.49
2018-11-05T20:26:47.098Z,11.41
2018-11-05T20:29:16.220Z,11.56
2018-11-05T20:31:44.490Z,11.64
2018-11-05T20:34:12.708Z,11.66
2018-11-05T20:36:40.416Z,11.67
2018-11-05T20:39:09.485Z,11.72
2018-11-05T20:41:37.501Z,11.75
2018-11-05T20:44:06.171Z,11.79
2018-11-05T20:46:34.155Z,11.82
2018-11-05T20:49:02.235Z,11.84
2018-11-05T20:51:30.325Z,11.84
2018-11-05T20:53:58.501Z,11.77
2018-11-05T20:56:26.927Z,11.80
2018-11-05T20:58:54.936Z,11.78
2018-11-05T21:01:22.916Z,11.80
2018-11-05T21:03:50.910Z,11.81
2018-11-05T21:06:19.349Z,11.76
2018-11-05T21:08:47.406Z,11.79
2018-11-05T21:11:15.358Z,11.81
2018-11-05T21:13:43.382Z,11.61
2018-11-05T21:16:11.812Z,11.69
2018-11-05T21:18:39.897Z,11.70
2018-11-05T21:21:07.925Z,11.61
2018-11-05T21:23:35.808Z,11.68
2018-11-05T21:26:04.704Z,11.67
2018-11-05T21:28:32.640Z,11.69
2018-11-05T21:31:01.070Z,11.61
2018-11-05T21:33:29.096Z,11.63
2018-11-05T21:35:57.177Z,11.63
2018-11-05T21:38:25.451Z,11.55
2018-11-05T21:40:53.446Z,11.64
2018-11-05T21:43:21.469Z,11.52
2018-11-05T21:45:49.416Z,11.36
2018-11-05T21:48:17.464Z,11.13
2018-11-05T21:50:45.567Z,11.13
2018-11-05T21:53:13.510Z,11.21
2018-11-05T21:55:41.432Z,11.35
2018-11-05T21:58:09.335Z,11.46
2018-11-05T22:00:37.347Z,11.29
2018-11-05T22:03:09.957Z,11.36
2018-11-05T22:05:38.388Z,11.37
2018-11-05T22:08:06.400Z,11.41
2018-11-05T22:10:34.351Z,11.49
2018-11-05T22:13:02.292Z,11.51
2018-11-05T22:15:39.547Z,11.59
2018-11-05T22:18:07.554Z,11.61
2018-11-05T22:20:35.460Z,11.62
2018-11-05T22:23:03.459Z,11.60
2018-11-05T22:25:31.387Z,11.61
2018-11-05T22:27:59.345Z,11.68
2018-11-05T22:30:27.362Z,11.68
2018-11-05T22:32:55.264Z,11.66
2018-11-05T22:35:23.249Z,11.72
2018-11-05T22:37:51.255Z,11.70
2018-11-05T22:40:19.216Z,11.69
2018-11-05T22:42:47.200Z,11.72
2018-11-05T22:45:15.247Z,11.74
2018-11-05T22:47:44.093Z,11.66
2018-11-05T22:50:12.022Z,11.70
2018-11-05T22:52:40.735Z,11.69
2018-11-05T22:55:09.125Z,11.61
2018-11-05T22:57:37.125Z,11.60
2018-11-05T23:00:16.397Z,11.60
2018-11-05T23:02:50.071Z,11.59
2018-11-05T23:05:18.305Z,11.61
2018-11-05T23:07:46.308Z,11.63
2018-11-05T23:10:14.298Z,11.66
2018-11-05T23:12:42.289Z,11.70
2018-11-05T23:15:10.407Z,11.70
2018-11-05T23:17:38.534Z,11.70
2018-11-05T23:20:07.221Z,11.59
2018-11-05T23:22:35.200Z,11.59
2018-11-05T23:25:03.289Z,11.64
2018-11-05T23:27:31.274Z,11.66
2018-11-05T23:29:59.310Z,11.60
2018-11-05T23:32:27.372Z,11.66
2018-11-05T23:34:55.342Z,11.65
2018-11-05T23:37:23.305Z,11.73
2018-11-05T23:39:51.288Z,11.74
2018-11-05T23:42:19.230Z,11.78
2018-11-05T23:44:47.185Z,11.81
2018-11-05T23:47:15.216Z,11.75
2018-11-05T23:49:43.150Z,11.72
2018-11-05T23:52:11.239Z,11.70
2018-11-05T23:54:39.155Z,11.80
2018-11-05T23:57:07.128Z,11.80
2018-11-05T23:59:35.025Z,11.84
